Time;durP1;ratioP1;P1;durP2;ratioP2;P2;SDS_P1;SDS_P2;PMS_P1;PMS_P2;Temp;Humidity;BMP_temperature;BMP_pressure;BME280_temperature;BME280_humidity;BME280_pressure;Samples;Min_cycle;Max_cycle;Signal;HPM_P1;HPM_P2
2023/12/23 05:02:26;;;;;;;0.50;0.50;;;3.70;99.90;;;;;;4991383;23;20229;-68
2023/12/23 05:04:53;;;;;;;0.20;0.20;;;3.70;99.90;;;;;;4918859;29;20202;-68
2023/12/23 05:07:20;;;;;;;0.50;0.50;;;3.80;99.90;;;;;;4926210;29;20216;-68
2023/12/23 05:09:46;;;;;;;1.30;1.17;;;3.80;99.90;;;;;;4917071;29;20680;-68
2023/12/23 05:12:13;;;;;;;5.40;0.30;;;3.80;99.90;;;;;;4921734;29;20226;-68
2023/12/23 05:14:40;;;;;;;3.50;1.13;;;3.70;99.90;;;;;;4918204;29;20216;-68
2023/12/23 05:17:07;;;;;;;0.75;0.75;;;3.70;99.90;;;;;;4918076;29;20221;-68
2023/12/23 05:19:35;;;;;;;0.40;0.40;;;3.70;99.90;;;;;;4928644;29;20240;-68
2023/12/23 05:22:02;;;;;;;0.35;0.35;;;3.70;99.90;;;;;;4917604;29;20227;-68
2023/12/23 05:24:29;;;;;;;1.30;0.68;;;3.70;99.90;;;;;;4919956;29;20215;-68
2023/12/23 05:26:55;;;;;;;0.63;0.63;;;3.60;99.90;;;;;;4924629;29;20207;-68
2023/12/23 05:29:22;;;;;;;2.28;0.52;;;3.70;99.90;;;;;;4915574;29;20208;-68
2023/12/23 05:31:49;;;;;;;0.20;0.20;;;3.60;99.90;;;;;;4921793;29;21974;-68
2023/12/23 05:34:15;;;;;;;0.20;0.20;;;3.60;99.90;;;;;;4920743;29;20218;-68
2023/12/23 05:36:44;;;;;;;0.30;0.30;;;3.60;99.90;;;;;;4916286;29;20218;-68
2023/12/23 05:39:11;;;;;;;1.20;0.43;;;3.60;99.90;;;;;;4923651;29;22113;-68
2023/12/23 05:41:38;;;;;;;5.40;0.73;;;3.60;99.90;;;;;;4928253;29;20229;-68
2023/12/23 05:44:05;;;;;;;0.38;0.38;;;3.60;99.90;;;;;;4920010;29;20224;-67
2023/12/23 05:46:32;;;;;;;1.50;0.55;;;3.50;99.90;;;;;;4919148;29;20228;-68
2023/12/23 05:48:58;;;;;;;2.00;0.30;;;3.50;99.90;;;;;;4925193;29;20542;-68
2023/12/23 05:51:25;;;;;;;1.50;0.90;;;3.50;99.90;;;;;;4923230;29;20226;-68
2023/12/23 05:53:53;;;;;;;0.45;0.45;;;3.50;99.90;;;;;;4923809;29;20206;-67
2023/12/23 05:56:20;;;;;;;8.48;0.60;;;3.50;99.90;;;;;;4932011;29;20214;-67
2023/12/23 05:58:47;;;;;;;0.40;0.40;;;3.50;99.90;;;;;;4936385;29;20217;-67
2023/12/23 06:01:13;;;;;;;2.08;0.57;;;3.50;99.90;;;;;;4925175;29;20651;-67
2023/12/23 06:03:40;;;;;;;0.60;0.60;;;3.50;99.90;;;;;;4924036;29;20220;-69
2023/12/23 06:06:07;;;;;;;2.05;0.68;;;3.50;99.90;;;;;;4927264;29;20236;-67
2023/12/23 06:08:33;;;;;;;1.33;1.05;;;3.50;99.90;;;;;;4924028;29;20661;-67
2023/12/23 06:11:02;;;;;;;2.75;0.55;;;3.50;99.90;;;;;;4920806;29;20227;-68
2023/12/23 06:13:29;;;;;;;0.75;0.75;;;3.50;99.90;;;;;;4920256;29;20215;-68
2023/12/23 06:15:56;;;;;;;0.30;0.30;;;3.50;99.90;;;;;;4925740;29;20202;-67
2023/12/23 06:18:22;;;;;;;5.25;0.55;;;3.40;99.90;;;;;;4918383;29;20206;-68
2023/12/23 06:20:49;;;;;;;0.43;0.43;;;3.40;99.90;;;;;;4921858;29;20237;-67
2023/12/23 06:23:16;;;;;;;0.73;0.20;;;3.50;99.90;;;;;;4929525;29;20312;-67
2023/12/23 06:25:43;;;;;;;4.95;0.40;;;3.50;99.90;;;;;;4918722;29;20578;-66
2023/12/23 06:28:11;;;;;;;3.13;0.50;;;3.50;99.90;;;;;;4918261;29;20217;-66
2023/12/23 06:30:38;;;;;;;0.30;0.30;;;3.50;99.90;;;;;;4924122;29;20222;-66
2023/12/23 06:33:05;;;;;;;2.38;0.52;;;3.50;99.90;;;;;;4920792;29;20219;-68
2023/12/23 06:35:31;;;;;;;0.30;0.30;;;3.50;99.90;;;;;;4922503;29;20673;-67
2023/12/23 06:37:58;;;;;;;0.77;0.20;;;3.50;99.90;;;;;;4929045;29;20203;-67
2023/12/23 06:40:25;;;;;;;1.98;0.40;;;3.50;99.90;;;;;;4920676;29;20226;-67
2023/12/23 06:42:51;;;;;;;0.20;0.20;;;3.40;99.90;;;;;;4923044;29;20218;-66
2023/12/23 06:45:19;;;;;;;0.20;0.20;;;3.40;99.90;;;;;;4920214;29;20218;-67
2023/12/23 06:47:46;;;;;;;0.68;0.50;;;3.40;99.90;;;;;;4917226;29;20210;-67
2023/12/23 06:50:13;;;;;;;0.20;0.20;;;3.40;99.90;;;;;;4916888;29;20603;-68
2023/12/23 06:52:41;;;;;;;0.10;0.10;;;3.40;99.90;;;;;;4920411;29;20287;-68
2023/12/23 06:55:08;;;;;;;0.22;0.22;;;3.40;99.90;;;;;;4921704;29;20588;-67
2023/12/23 06:57:35;;;;;;;0.20;0.20;;;3.30;99.90;;;;;;4921741;29;20680;-68
2023/12/23 07:00:02;;;;;;;2.25;0.65;;;3.30;99.90;;;;;;4921847;29;20232;-67
2023/12/23 07:02:30;;;;;;;0.30;0.30;;;3.40;99.90;;;;;;4923674;29;20235;-70
2023/12/23 07:04:57;;;;;;;0.30;0.30;;;3.30;99.90;;;;;;4929544;29;20673;-70
2023/12/23 07:07:23;;;;;;;0.28;0.28;;;3.30;99.90;;;;;;4919664;29;20221;-67
2023/12/23 07:09:50;;;;;;;0.93;0.90;;;3.30;99.90;;;;;;4923447;29;20203;-67
2023/12/23 07:12:17;;;;;;;0.57;0.35;;;3.30;99.90;;;;;;4921332;29;20572;-67
2023/12/23 07:14:43;;;;;;;0.30;0.30;;;3.30;99.90;;;;;;4927668;29;20210;-67
2023/12/23 07:17:10;;;;;;;0.40;0.40;;;3.20;99.90;;;;;;4932667;29;20577;-68
2023/12/23 07:19:38;;;;;;;0.30;0.30;;;3.20;99.90;;;;;;4922645;29;20230;-68
2023/12/23 07:22:05;;;;;;;1.27;0.30;;;3.20;99.90;;;;;;4928905;29;20252;-68
2023/12/23 07:24:32;;;;;;;2.25;0.77;;;3.20;99.90;;;;;;4920179;29;20206;-68
2023/12/23 07:27:00;;;;;;;0.40;0.40;;;3.20;99.90;;;;;;4921894;29;20237;-68
2023/12/23 07:29:27;;;;;;;0.40;0.40;;;3.20;99.90;;;;;;4923304;29;20210;-68
2023/12/23 07:31:54;;;;;;;0.20;0.20;;;3.20;99.90;;;;;;4919199;29;20247;-68
2023/12/23 07:34:20;;;;;;;0.68;0.40;;;3.10;99.90;;;;;;4916667;29;20215;-68
2023/12/23 07:36:48;;;;;;;0.30;0.30;;;3.10;99.90;;;;;;4916979;29;20210;-68
2023/12/23 07:39:16;;;;;;;0.30;0.30;;;3.10;99.90;;;;;;4922826;29;20221;-68
2023/12/23 07:41:43;;;;;;;0.22;0.22;;;3.10;99.90;;;;;;4926018;29;20306;-68
2023/12/23 07:44:09;;;;;;;0.68;0.38;;;3.00;99.90;;;;;;4918895;29;20256;-67
2023/12/23 07:46:36;;;;;;;1.05;0.60;;;3.10;99.90;;;;;;4917555;29;20215;-68
2023/12/23 07:49:03;;;;;;;0.40;0.40;;;3.00;99.90;;;;;;4918954;29;20238;-68
2023/12/23 07:51:30;;;;;;;0.50;0.50;;;3.00;99.90;;;;;;4919583;29;20693;-67
2023/12/23 07:53:58;;;;;;;0.30;0.30;;;3.00;99.90;;;;;;4922443;29;20235;-67
2023/12/23 07:56:25;;;;;;;1.10;0.30;;;3.00;99.90;;;;;;4928156;29;20218;-67
2023/12/23 07:58:52;;;;;;;0.30;0.30;;;3.00;99.90;;;;;;4924489;29;20206;-67
2023/12/23 08:01:19;;;;;;;1.27;0.85;;;3.00;99.90;;;;;;4916480;29;20230;-67
2023/12/23 08:03:45;;;;;;;3.50;1.33;;;3.00;99.90;;;;;;4923841;29;20227;-67
2023/12/23 08:06:12;;;;;;;0.65;0.65;;;3.00;99.90;;;;;;4919678;29;20314;-68
2023/12/23 08:08:39;;;;;;;1.15;0.82;;;2.90;99.90;;;;;;4923146;29;20210;-67
2023/12/23 08:11:07;;;;;;;2.15;1.40;;;3.00;99.90;;;;;;4922079;29;20222;-66
2023/12/23 08:13:34;;;;;;;4.28;2.60;;;3.00;99.90;;;;;;4927985;29;20207;-68
2023/12/23 08:16:00;;;;;;;6.82;2.47;;;2.90;99.90;;;;;;4921728;29;20234;-68
2023/12/23 08:18:27;;;;;;;9.55;1.70;;;2.90;99.90;;;;;;4923389;29;20216;-70
2023/12/23 08:20:54;;;;;;;13.75;7.32;;;2.90;99.90;;;;;;4920693;29;20244;-68
2023/12/23 08:23:21;;;;;;;2.15;1.92;;;2.90;99.90;;;;;;4930511;29;20222;-68
2023/12/23 08:25:48;;;;;;;0.93;0.93;;;2.90;99.90;;;;;;4923599;29;20222;-68
2023/12/23 08:28:16;;;;;;;2.03;1.60;;;2.80;99.90;;;;;;4917749;29;20262;-68
2023/12/23 08:30:43;;;;;;;1.30;0.90;;;2.80;99.90;;;;;;4921297;29;20249;-68
2023/12/23 08:33:10;;;;;;;1.02;0.85;;;2.80;99.90;;;;;;4927052;29;20206;-69
2023/12/23 08:35:36;;;;;;;1.15;1.05;;;2.80;99.90;;;;;;4919755;29;20206;-68
2023/12/23 08:38:04;;;;;;;1.85;1.27;;;2.70;99.90;;;;;;4927642;29;20217;-68
2023/12/23 08:40:30;;;;;;;1.85;1.73;;;2.70;99.90;;;;;;4918360;29;20372;-68
2023/12/23 08:42:57;;;;;;;1.55;1.45;;;2.80;99.90;;;;;;4919276;29;20310;-68
2023/12/23 08:45:26;;;;;;;1.08;1.08;;;2.80;99.90;;;;;;4920436;29;20211;-68
2023/12/23 08:47:52;;;;;;;1.60;0.75;;;2.80;99.90;;;;;;4928241;29;20690;-68
2023/12/23 08:50:20;;;;;;;0.45;0.45;;;2.70;99.90;;;;;;4917890;29;20210;-68
2023/12/23 08:52:47;;;;;;;0.47;0.47;;;2.70;99.90;;;;;;4925298;29;20206;-67
2023/12/23 08:55:14;;;;;;;0.60;0.60;;;2.70;99.90;;;;;;4923023;29;20586;-68
2023/12/23 08:57:40;;;;;;;0.30;0.30;;;2.70;99.90;;;;;;4921377;29;20207;-67
2023/12/23 09:00:09;;;;;;;0.52;0.50;;;2.70;99.90;;;;;;4921284;29;20249;-68
2023/12/23 09:02:37;;;;;;;0.32;0.32;;;2.70;99.90;;;;;;4916975;29;20211;-69
2023/12/23 09:05:04;;;;;;;0.90;0.90;;;2.70;99.90;;;;;;4919678;29;20225;-67
2023/12/23 09:07:31;;;;;;;1.02;0.65;;;2.70;99.90;;;;;;4919982;29;20595;-68
2023/12/23 09:09:58;;;;;;;1.58;1.30;;;2.70;99.90;;;;;;4919321;29;20212;-68
2023/12/23 09:12:25;;;;;;;0.60;0.60;;;2.60;99.90;;;;;;4915953;29;20233;-68
2023/12/23 09:14:52;;;;;;;2.22;0.75;;;2.80;99.90;;;;;;4924271;29;20210;-69
2023/12/23 09:17:19;;;;;;;2.05;0.93;;;2.70;99.90;;;;;;4925894;29;20649;-68
2023/12/23 09:19:47;;;;;;;3.40;1.67;;;2.70;99.90;;;;;;4917165;29;20563;-68
2023/12/23 09:22:14;;;;;;;1.35;1.25;;;2.70;99.90;;;;;;4919936;29;20238;-68
2023/12/23 09:24:43;;;;;;;2.33;1.70;;;2.70;99.90;;;;;;4924957;29;20214;-69
2023/12/23 09:27:10;;;;;;;1.10;1.05;;;2.70;99.90;;;;;;4918930;29;20256;-69
2023/12/23 09:29:37;;;;;;;2.05;1.15;;;2.70;99.90;;;;;;4919914;29;20214;-69
2023/12/23 09:32:04;;;;;;;1.33;1.23;;;2.70;99.90;;;;;;4925133;29;20228;-69
2023/12/23 09:34:31;;;;;;;1.63;1.52;;;2.70;99.90;;;;;;4926832;29;20229;-69
2023/12/23 09:36:59;;;;;;;1.13;1.13;;;2.70;99.90;;;;;;4917239;29;20222;-69
2023/12/23 09:39:26;;;;;;;0.98;0.98;;;2.80;99.90;;;;;;4921947;29;20214;-69
2023/12/23 09:41:54;;;;;;;0.60;0.60;;;2.80;99.90;;;;;;4923140;29;20241;-69
2023/12/23 09:44:21;;;;;;;1.60;1.50;;;2.80;99.90;;;;;;4917799;29;20221;-69
2023/12/23 09:46:49;;;;;;;2.17;2.08;;;2.80;99.90;;;;;;4917916;29;20283;-69
2023/12/23 09:49:16;;;;;;;1.63;1.60;;;2.80;99.90;;;;;;4916493;29;20573;-69
2023/12/23 09:51:44;;;;;;;3.60;2.20;;;2.80;99.90;;;;;;4922845;29;20238;-69
2023/12/23 09:54:19;;;;;;;0.90;0.85;;;2.90;99.90;;;;;;4929120;29;20225;-70
2023/12/23 09:56:47;;;;;;;3.03;2.40;;;3.00;99.90;;;;;;4920333;29;20212;-69
2023/12/23 09:59:14;;;;;;;2.50;1.67;;;3.00;99.90;;;;;;4919137;29;20237;-70
2023/12/23 10:01:41;;;;;;;2.42;2.33;;;3.00;99.90;;;;;;4922474;29;20254;-69
2023/12/23 10:04:08;;;;;;;1.90;1.88;;;3.00;99.90;;;;;;4915503;29;20324;-69
2023/12/23 10:06:34;;;;;;;3.33;1.60;;;3.00;99.90;;;;;;4913894;29;20210;-69
2023/12/23 10:09:03;;;;;;;1.00;1.00;;;3.00;99.90;;;;;;4921767;29;20301;-69
2023/12/23 10:11:31;;;;;;;1.23;1.13;;;3.00;99.90;;;;;;4918580;29;20231;-69
2023/12/23 10:13:58;;;;;;;1.30;1.30;;;3.00;99.90;;;;;;4917604;29;20202;-70
2023/12/23 10:16:30;;;;;;;1.92;1.83;;;3.00;99.90;;;;;;4915846;29;20217;-69
2023/12/23 10:18:57;;;;;;;1.15;1.02;;;3.00;99.90;;;;;;4923936;29;20212;-70
2023/12/23 10:21:24;;;;;;;2.20;1.75;;;3.00;99.90;;;;;;4921613;29;20234;-69
2023/12/23 10:23:51;;;;;;;2.42;0.82;;;3.10;99.90;;;;;;4917814;29;20555;-70
2023/12/23 10:26:17;;;;;;;0.77;0.77;;;3.20;99.90;;;;;;4921720;29;20217;-69
2023/12/23 10:28:54;;;;;;;3.75;1.20;;;3.20;99.90;;;;;;4920656;29;20337;-69
2023/12/23 10:31:25;;;;;;;2.10;2.00;;;3.20;99.90;;;;;;4923355;29;20241;-69
2023/12/23 10:33:58;;;;;;;2.17;1.98;;;3.30;99.90;;;;;;4920169;29;20206;-69
2023/12/23 10:36:26;;;;;;;1.50;1.40;;;3.30;99.90;;;;;;4917463;29;20221;-70
2023/12/23 10:38:57;;;;;;;2.30;1.60;;;3.30;99.90;;;;;;4924623;29;20210;-69
2023/12/23 10:41:33;;;;;;;1.15;1.08;;;3.40;99.90;;;;;;4923298;29;20621;-69
2023/12/23 10:44:02;;;;;;;1.33;1.17;;;3.40;99.90;;;;;;4923996;29;20542;-71
2023/12/23 10:46:31;;;;;;;1.35;1.35;;;3.50;99.90;;;;;;4928775;29;20221;-69
2023/12/23 10:48:58;;;;;;;0.70;0.70;;;3.50;99.90;;;;;;4923025;29;20208;-69
2023/12/23 10:51:26;;;;;;;1.08;0.95;;;3.50;99.90;;;;;;4931666;29;20241;-69
2023/12/23 10:53:54;;;;;;;1.25;1.25;;;3.50;99.90;;;;;;4923906;29;20207;-69
2023/12/23 10:56:23;;;;;;;5.15;2.75;;;3.60;99.90;;;;;;4917830;29;20219;-71
2023/12/23 10:58:51;;;;;;;2.13;2.00;;;3.70;99.90;;;;;;4925001;29;20301;-69
2023/12/23 11:01:22;;;;;;;1.60;1.50;;;3.70;99.90;;;;;;4920146;29;20748;-71
2023/12/23 11:03:52;;;;;;;3.15;2.50;;;3.70;99.90;;;;;;4923616;29;20227;-71
2023/12/23 11:06:20;;;;;;;1.55;1.55;;;3.80;99.90;;;;;;4924347;29;20556;-69
2023/12/23 11:08:48;;;;;;;2.08;1.70;;;3.80;99.90;;;;;;4930017;29;20222;-70
2023/12/23 11:11:16;;;;;;;2.63;2.53;;;3.90;99.90;;;;;;4922501;29;20336;-71
2023/12/23 11:13:43;;;;;;;3.70;1.23;;;3.90;99.90;;;;;;4923534;29;20208;-70
2023/12/23 11:16:12;;;;;;;1.30;1.30;;;3.90;99.90;;;;;;4929635;29;20298;-70
2023/12/23 11:18:40;;;;;;;3.63;2.15;;;4.00;99.90;;;;;;4922311;29;20213;-70
2023/12/23 11:21:15;;;;;;;1.25;1.25;;;4.00;99.90;;;;;;4916521;29;20244;-70
2023/12/23 11:23:41;;;;;;;54.55;25.95;;;4.10;99.90;;;;;;4922880;29;20207;-70
2023/12/23 11:26:40;;;;;;;27.80;16.90;;;4.10;99.90;;;;;;4918835;29;20240;-71
2023/12/23 11:29:07;;;;;;;2.67;1.48;;;4.10;99.90;;;;;;4921787;29;20574;-71
2023/12/23 11:31:34;;;;;;;1.60;1.58;;;4.20;99.90;;;;;;4926993;29;20230;-71
2023/12/23 11:34:12;;;;;;;1.25;1.25;;;4.20;99.90;;;;;;4927074;29;20585;-70
2023/12/23 11:36:39;;;;;;;1.33;0.93;;;4.30;99.90;;;;;;4928799;29;20213;-71
2023/12/23 11:39:06;;;;;;;1.40;1.40;;;4.30;99.90;;;;;;4922530;29;20820;-71
2023/12/23 11:41:34;;;;;;;1.48;1.45;;;4.30;99.90;;;;;;4922569;29;20240;-71
2023/12/23 11:44:01;;;;;;;3.22;1.70;;;4.40;99.90;;;;;;4924405;29;20204;-71
2023/12/23 11:46:30;;;;;;;2.10;2.00;;;4.40;99.90;;;;;;4920777;29;20621;-71
2023/12/23 11:48:57;;;;;;;2.00;1.17;;;4.40;99.90;;;;;;4921552;29;20234;-71
2023/12/23 11:51:25;;;;;;;4.07;1.17;;;4.40;99.90;;;;;;4923585;29;20232;-70
2023/12/23 11:53:53;;;;;;;1.60;1.20;;;4.40;99.90;;;;;;4920163;29;20208;-70
2023/12/23 11:56:20;;;;;;;1.08;1.08;;;4.40;99.90;;;;;;4918760;29;20613;-70
2023/12/23 11:58:47;;;;;;;2.58;1.77;;;4.40;99.90;;;;;;4918998;29;20248;-70
2023/12/23 12:01:14;;;;;;;1.80;1.35;;;4.40;99.90;;;;;;4918347;29;20241;-72
2023/12/23 12:03:41;;;;;;;2.08;1.92;;;4.40;99.90;;;;;;4920128;29;20204;-70
2023/12/23 12:06:08;;;;;;;1.27;1.25;;;4.40;99.90;;;;;;4919701;29;20327;-70
2023/12/23 12:08:36;;;;;;;0.68;0.68;;;4.40;99.90;;;;;;4918226;29;20209;-71
2023/12/23 12:11:03;;;;;;;3.70;0.90;;;4.50;99.90;;;;;;4921981;29;20227;-70
2023/12/23 12:13:30;;;;;;;1.10;1.10;;;4.50;99.90;;;;;;4924688;29;20213;-71
2023/12/23 12:15:57;;;;;;;1.75;0.90;;;4.50;99.90;;;;;;4926179;29;20205;-71
2023/12/23 12:18:24;;;;;;;1.20;0.80;;;4.50;99.90;;;;;;4927789;29;20219;-71
2023/12/23 12:20:52;;;;;;;0.77;0.70;;;4.50;99.90;;;;;;4921990;29;20315;-71
2023/12/23 12:23:18;;;;;;;3.15;1.10;;;4.50;99.90;;;;;;4915651;29;20656;-71
2023/12/23 12:25:49;;;;;;;1.20;1.20;;;4.50;99.90;;;;;;4918020;29;20649;-69
2023/12/23 12:28:16;;;;;;;2.22;2.13;;;4.60;99.90;;;;;;4916843;29;20213;-69
2023/12/23 12:30:45;;;;;;;3.13;1.35;;;4.60;99.90;;;;;;4922213;29;20229;-70
2023/12/23 12:33:12;;;;;;;1.63;1.52;;;4.60;99.90;;;;;;4921719;29;20307;-70
2023/12/23 12:35:41;;;;;;;1.55;1.38;;;4.60;99.90;;;;;;4919303;29;20583;-70
2023/12/23 12:38:09;;;;;;;1.27;1.27;;;4.60;99.90;;;;;;4926375;29;20295;-71
2023/12/23 12:40:36;;;;;;;1.55;1.45;;;4.60;99.90;;;;;;4919521;29;20233;-70
2023/12/23 12:43:06;;;;;;;2.72;2.08;;;4.60;99.90;;;;;;4922672;29;20604;-70
2023/12/23 12:45:36;;;;;;;3.28;3.08;;;4.50;99.90;;;;;;4915617;29;20737;-71
2023/12/23 12:48:06;;;;;;;3.80;1.85;;;4.50;99.90;;;;;;4918376;29;20717;-71
2023/12/23 12:50:33;;;;;;;1.13;1.13;;;4.50;99.90;;;;;;4915048;29;20246;-71
2023/12/23 12:53:01;;;;;;;1.25;1.25;;;4.40;99.90;;;;;;4923568;29;20581;-69
2023/12/23 12:55:28;;;;;;;4.22;1.50;;;4.40;99.90;;;;;;4915252;29;20216;-69
2023/12/23 12:57:55;;;;;;;1.52;1.25;;;4.40;99.90;;;;;;4918241;29;20220;-70
2023/12/23 13:00:26;;;;;;;1.30;1.20;;;4.50;99.90;;;;;;4913714;29;20235;-69
2023/12/23 13:02:52;;;;;;;0.88;0.88;;;4.40;99.90;;;;;;4916457;29;20267;-70
2023/12/23 13:05:19;;;;;;;0.93;0.90;;;4.40;99.90;;;;;;4913929;29;20215;-70
2023/12/23 13:07:46;;;;;;;1.15;1.15;;;4.50;99.90;;;;;;4916529;29;20235;-70
2023/12/23 13:10:14;;;;;;;0.93;0.93;;;4.40;99.90;;;;;;4915763;29;20331;-70
2023/12/23 13:12:41;;;;;;;0.82;0.82;;;4.40;99.90;;;;;;4913669;29;20299;-70
2023/12/23 13:15:09;;;;;;;0.57;0.57;;;4.40;99.90;;;;;;4914677;29;20267;-69
2023/12/23 13:17:37;;;;;;;0.95;0.95;;;4.40;99.90;;;;;;4915778;29;20218;-70
2023/12/23 13:20:06;;;;;;;0.98;0.88;;;4.40;99.90;;;;;;4913875;29;20215;-69
2023/12/23 13:22:32;;;;;;;1.55;1.20;;;4.50;99.90;;;;;;4916977;29;20240;-70
2023/12/23 13:24:59;;;;;;;1.25;1.25;;;4.50;99.90;;;;;;4916460;29;20212;-69
2023/12/23 13:27:26;;;;;;;1.42;1.38;;;4.50;99.90;;;;;;4914201;29;20659;-70
2023/12/23 13:29:52;;;;;;;0.77;0.77;;;4.50;99.90;;;;;;4913518;29;20683;-70
2023/12/23 13:32:19;;;;;;;1.27;1.20;;;4.50;99.90;;;;;;4919281;29;20314;-70
2023/12/23 13:34:47;;;;;;;0.80;0.63;;;4.50;99.90;;;;;;4917245;29;20234;-70
2023/12/23 13:37:15;;;;;;;0.82;0.82;;;4.50;99.90;;;;;;4914697;29;20295;-70
2023/12/23 13:39:42;;;;;;;2.38;0.50;;;4.50;99.90;;;;;;4920022;29;20255;-70
2023/12/23 13:42:08;;;;;;;1.27;1.13;;;4.50;99.90;;;;;;4924797;29;20243;-70
2023/12/23 13:44:35;;;;;;;1.20;0.50;;;4.50;99.90;;;;;;4921811;29;20212;-69
2023/12/23 13:47:03;;;;;;;1.40;1.30;;;4.50;99.90;;;;;;4922712;29;20659;-69
2023/12/23 13:49:30;;;;;;;1.00;1.00;;;4.50;99.90;;;;;;4917252;29;20764;-69
2023/12/23 13:51:58;;;;;;;0.63;0.63;;;4.50;99.90;;;;;;4918410;29;20718;-69
2023/12/23 13:54:25;;;;;;;1.20;1.20;;;4.50;99.90;;;;;;4922976;29;20667;-69
2023/12/23 13:56:52;;;;;;;0.88;0.80;;;4.50;99.90;;;;;;4918807;29;20204;-69
2023/12/23 13:59:19;;;;;;;0.55;0.55;;;4.50;99.90;;;;;;4921503;29;20220;-70
2023/12/23 14:01:45;;;;;;;1.27;0.82;;;4.50;99.90;;;;;;4912100;29;20669;-70
2023/12/23 14:04:12;;;;;;;0.40;0.40;;;4.50;99.90;;;;;;4922346;29;20219;-70
2023/12/23 14:06:39;;;;;;;6.55;1.08;;;4.50;99.90;;;;;;4922925;29;20211;-70
2023/12/23 14:09:07;;;;;;;1.05;1.05;;;4.50;99.90;;;;;;4913379;29;20581;-71
2023/12/23 14:11:34;;;;;;;0.77;0.77;;;4.50;99.90;;;;;;4913658;29;20266;-70
2023/12/23 14:14:01;;;;;;;0.70;0.70;;;4.50;99.90;;;;;;4918394;29;20212;-70
2023/12/23 14:16:30;;;;;;;1.20;1.10;;;4.50;99.90;;;;;;4920651;29;20220;-70
2023/12/23 14:18:57;;;;;;;1.45;1.13;;;4.50;99.90;;;;;;4921324;29;20217;-70
2023/12/23 14:21:24;;;;;;;0.70;0.70;;;4.50;99.90;;;;;;4917152;29;20716;-70
2023/12/23 14:23:50;;;;;;;0.38;0.38;;;4.50;99.90;;;;;;4924610;29;20221;-70
2023/12/23 14:26:18;;;;;;;0.90;0.90;;;4.50;99.90;;;;;;4924264;29;20715;-70
2023/12/23 14:28:45;;;;;;;1.05;1.05;;;4.50;99.90;;;;;;4921707;29;20213;-71
2023/12/23 14:31:13;;;;;;;0.45;0.45;;;4.50;99.90;;;;;;4923994;29;20232;-71
2023/12/23 14:33:39;;;;;;;0.50;0.50;;;4.50;99.90;;;;;;4927891;29;20208;-70
2023/12/23 14:36:07;;;;;;;1.10;1.10;;;4.50;99.90;;;;;;4921597;29;20215;-70
2023/12/23 14:38:33;;;;;;;0.80;0.73;;;4.50;99.90;;;;;;4924362;29;20215;-70
2023/12/23 14:41:00;;;;;;;1.02;1.02;;;4.50;99.90;;;;;;4927236;29;20224;-71
2023/12/23 14:43:28;;;;;;;1.85;0.55;;;4.50;99.90;;;;;;4918245;29;20327;-71
2023/12/23 14:45:56;;;;;;;0.60;0.60;;;4.50;99.90;;;;;;4929011;29;20232;-70
2023/12/23 14:48:22;;;;;;;0.60;0.60;;;4.50;99.90;;;;;;4926292;29;20303;-70
2023/12/23 14:50:49;;;;;;;0.75;0.50;;;4.50;99.90;;;;;;4934512;29;20275;-70
2023/12/23 14:53:17;;;;;;;1.13;0.95;;;4.50;99.90;;;;;;4930633;29;20311;-70
2023/12/23 14:55:43;;;;;;;0.52;0.52;;;4.50;99.90;;;;;;4923434;29;20218;-70
2023/12/23 14:58:11;;;;;;;0.75;0.75;;;4.50;99.90;;;;;;4923751;29;20211;-68
2023/12/23 15:00:40;;;;;;;5.88;3.90;;;4.50;99.90;;;;;;4923078;29;20747;-69
2023/12/23 15:03:07;;;;;;;2.10;2.00;;;4.50;99.90;;;;;;4922420;29;20231;-69
2023/12/23 15:05:34;;;;;;;1.00;1.00;;;4.50;99.90;;;;;;4923652;29;20203;-69
2023/12/23 15:08:01;;;;;;;0.63;0.63;;;4.50;99.90;;;;;;4926593;29;20550;-69
2023/12/23 15:10:27;;;;;;;1.20;0.85;;;4.50;99.90;;;;;;4918588;29;20355;-69
2023/12/23 15:12:55;;;;;;;1.65;1.08;;;4.50;99.90;;;;;;4920366;29;20215;-69
2023/12/23 15:15:22;;;;;;;0.60;0.60;;;4.50;99.90;;;;;;4917870;29;20334;-69
2023/12/23 15:17:50;;;;;;;1.00;1.00;;;4.50;99.90;;;;;;4926546;29;20228;-70
2023/12/23 15:20:17;;;;;;;1.77;1.00;;;4.50;99.90;;;;;;4920256;29;20215;-69
2023/12/23 15:22:44;;;;;;;0.65;0.65;;;4.50;99.90;;;;;;4920648;29;20228;-69
2023/12/23 15:25:11;;;;;;;0.50;0.50;;;4.50;99.90;;;;;;4922287;29;20295;-70
2023/12/23 15:27:38;;;;;;;2.15;1.05;;;4.60;99.90;;;;;;4913062;29;20235;-70
2023/12/23 15:30:06;;;;;;;0.52;0.52;;;4.60;99.90;;;;;;4919870;29;20539;-69
2023/12/23 15:32:31;;;;;;;0.55;0.55;;;4.60;99.90;;;;;;4923638;29;20346;-69
2023/12/23 15:34:59;;;;;;;0.60;0.60;;;4.50;99.90;;;;;;4921928;29;20613;-67
2023/12/23 15:37:26;;;;;;;0.70;0.70;;;4.60;99.90;;;;;;4923608;29;20226;-68
2023/12/23 15:39:53;;;;;;;0.90;0.60;;;4.60;99.90;;;;;;4924662;29;20245;-69
2023/12/23 15:42:20;;;;;;;1.25;0.50;;;4.60;99.90;;;;;;4924257;29;20282;-70
2023/12/23 15:44:47;;;;;;;0.77;0.77;;;4.60;99.90;;;;;;4919231;29;20655;-69
2023/12/23 15:47:13;;;;;;;0.50;0.50;;;4.60;99.90;;;;;;4921751;29;20231;-68
2023/12/23 15:49:40;;;;;;;0.32;0.32;;;4.60;99.90;;;;;;4922430;29;20211;-70
2023/12/23 15:52:08;;;;;;;0.57;0.57;;;4.60;99.90;;;;;;4922425;29;20231;-69
2023/12/23 15:54:35;;;;;;;0.70;0.70;;;4.60;99.90;;;;;;4919600;29;20222;-69
2023/12/23 15:57:04;;;;;;;0.98;0.98;;;4.60;99.90;;;;;;4917445;29;20228;-67
2023/12/23 15:59:31;;;;;;;0.75;0.75;;;4.60;99.90;;;;;;4921462;29;20284;-67
2023/12/23 16:01:57;;;;;;;0.65;0.65;;;4.60;99.90;;;;;;4918850;29;21359;-67
2023/12/23 16:04:25;;;;;;;0.35;0.35;;;4.60;99.90;;;;;;4918953;29;20211;-67
2023/12/23 16:06:52;;;;;;;0.63;0.63;;;4.50;99.90;;;;;;4920261;29;20223;-67
2023/12/23 16:09:20;;;;;;;0.82;0.65;;;4.50;99.90;;;;;;4915602;29;20223;-68
2023/12/23 16:11:47;;;;;;;0.55;0.47;;;4.50;99.90;;;;;;4919666;29;20326;-68
2023/12/23 16:14:14;;;;;;;1.38;0.60;;;4.50;99.90;;;;;;4923103;29;20290;-68
2023/12/23 16:16:41;;;;;;;1.75;0.73;;;4.40;99.90;;;;;;4922129;29;20216;-69
2023/12/23 16:19:08;;;;;;;0.65;0.65;;;4.50;99.90;;;;;;4916069;29;20562;-69
2023/12/23 16:21:34;;;;;;;1.30;1.30;;;4.50;99.90;;;;;;4924591;29;20231;-68
2023/12/23 16:24:01;;;;;;;1.50;1.50;;;4.50;99.90;;;;;;4922551;29;20225;-68
2023/12/23 16:26:29;;;;;;;0.88;0.88;;;4.50;99.90;;;;;;4922519;29;20215;-69
2023/12/23 16:28:56;;;;;;;0.80;0.80;;;4.50;99.90;;;;;;4919867;29;20215;-71
2023/12/23 16:31:23;;;;;;;0.65;0.65;;;4.50;99.90;;;;;;4915134;29;20231;-71
2023/12/23 16:33:49;;;;;;;0.93;0.90;;;4.50;99.90;;;;;;4920828;29;20199;-70
2023/12/23 16:36:17;;;;;;;1.73;1.63;;;4.50;99.90;;;;;;4921590;29;20304;-69
2023/12/23 16:38:43;;;;;;;0.93;0.93;;;4.50;99.90;;;;;;4921909;29;20302;-70
2023/12/23 16:41:11;;;;;;;1.20;1.20;;;4.50;99.90;;;;;;4924210;29;20538;-71
2023/12/23 16:43:39;;;;;;;0.73;0.73;;;4.50;99.90;;;;;;4924501;29;20274;-72
2023/12/23 16:46:06;;;;;;;1.95;1.85;;;4.40;99.90;;;;;;4919742;29;20208;-71
2023/12/23 16:48:34;;;;;;;1.33;1.33;;;4.40;99.90;;;;;;4913580;29;20207;-69
2023/12/23 16:51:00;;;;;;;2.72;1.35;;;4.50;99.90;;;;;;4921015;29;20962;-70
2023/12/23 16:53:27;;;;;;;1.00;1.00;;;4.50;99.90;;;;;;4919372;29;20580;-70
2023/12/23 16:55:54;;;;;;;2.67;2.50;;;4.40;99.90;;;;;;4914405;29;20222;-69
2023/12/23 16:58:21;;;;;;;3.92;3.63;;;4.40;99.90;;;;;;4923451;29;20220;-70
2023/12/23 17:00:49;;;;;;;5.18;1.85;;;4.40;99.90;;;;;;4917741;29;20631;-69
2023/12/23 17:03:16;;;;;;;1.08;1.08;;;4.40;99.90;;;;;;4915189;29;20254;-69
2023/12/23 17:05:43;;;;;;;1.30;1.30;;;4.40;99.90;;;;;;4917692;29;20309;-69
2023/12/23 17:08:09;;;;;;;6.57;3.17;;;4.40;99.90;;;;;;4920610;29;20212;-69
2023/12/23 17:10:36;;;;;;;3.72;2.78;;;4.40;99.90;;;;;;4919964;29;20228;-69
2023/12/23 17:13:03;;;;;;;3.33;2.60;;;4.40;99.90;;;;;;4924217;29;20223;-69
2023/12/23 17:15:30;;;;;;;1.67;1.58;;;4.40;99.90;;;;;;4915573;29;20213;-69
2023/12/23 17:17:58;;;;;;;4.88;3.05;;;4.40;99.90;;;;;;4915091;29;20212;-70
2023/12/23 17:20:25;;;;;;;3.00;2.47;;;4.40;99.90;;;;;;4921002;29;20216;-71
2023/12/23 17:22:53;;;;;;;7.05;3.67;;;4.40;99.90;;;;;;4916721;29;20228;-71
2023/12/23 17:25:20;;;;;;;7.10;3.88;;;4.50;99.90;;;;;;4920549;29;20214;-68
2023/12/23 17:27:47;;;;;;;2.42;2.33;;;4.50;99.90;;;;;;4918413;29;20218;-70
2023/12/23 17:30:14;;;;;;;5.20;4.15;;;4.50;99.90;;;;;;4925402;29;20709;-71
2023/12/23 17:32:41;;;;;;;1.70;1.58;;;4.50;99.90;;;;;;4917036;29;20211;-70
2023/12/23 17:35:10;;;;;;;8.23;1.75;;;4.50;99.90;;;;;;4920412;29;20232;-70
2023/12/23 17:37:37;;;;;;;2.30;2.20;;;4.50;99.90;;;;;;4920470;29;20832;-70
2023/12/23 17:40:04;;;;;;;1.73;1.67;;;4.50;99.90;;;;;;4921184;29;20253;-72
2023/12/23 17:42:31;;;;;;;2.05;1.90;;;4.50;99.90;;;;;;4921209;29;20232;-70
2023/12/23 17:44:58;;;;;;;2.85;2.75;;;4.50;99.90;;;;;;4914884;29;20211;-72
2023/12/23 17:47:25;;;;;;;2.45;2.45;;;4.50;99.90;;;;;;4916394;29;20209;-71
2023/12/23 17:49:52;;;;;;;2.85;2.65;;;4.50;99.90;;;;;;4919090;29;20221;-71
2023/12/23 17:52:21;;;;;;;2.22;1.80;;;4.50;99.90;;;;;;4913241;29;20229;-72
2023/12/23 17:54:48;;;;;;;1.75;1.65;;;4.50;99.90;;;;;;4918152;29;20652;-72
2023/12/23 17:57:15;;;;;;;2.15;2.10;;;4.60;99.90;;;;;;4916579;29;20630;-71
2023/12/23 17:59:42;;;;;;;1.30;1.30;;;4.60;99.90;;;;;;4917729;29;20679;-71